Terminal Aerodrome Forecast
Issued by NWS Austin/San Antonio, TX

Home | Current Version | Previous Version | Text Only | Print | Product List | Glossary On
Versions: 1 2 3 4 5 6 7 8 9 10 11 12 13 14 15 16 17 18 19 20 21 22 23 24 25 26
429
FTUS44 KEWX 252340
TAFDRT
TAF
KDRT 252340Z 2600/2624 13009KT P6SM SCT035 BKN050
     FM260300 11008KT P6SM VCTS SCT025 OVC050CB
     FM260800 12011KT 6SM BR OVC015
     FM261800 13014KT P6SM SCT025 BKN035=

USA.gov is the U.S. government's official web portal to all federal, state and local government web resources and services.